Time;durP1;ratioP1;P1;durP2;ratioP2;P2;SDS_P1;SDS_P2;PMS_P1;PMS_P2;Temp;Humidity;BMP_temperature;BMP_pressure;BME280_temperature;BME280_humidity;BME280_pressure;Samples;Min_cycle;Max_cycle;Signal;HPM_P1;HPM_P2
2022/06/01 00:02:21;;;;;;;12.20;9.57;;;13.60;1.00;;;;;;5054099;28;20977;-75
2022/06/01 00:04:48;;;;;;;11.63;9.20;;;13.50;1.00;;;;;;5065537;28;20477;-75
2022/06/01 00:07:16;;;;;;;11.00;8.73;;;13.50;1.00;;;;;;5063735;28;21187;-76
2022/06/01 00:09:42;;;;;;;12.13;9.60;;;13.40;1.00;;;;;;5067871;28;20584;-75
2022/06/01 00:12:11;;;;;;;11.40;8.80;;;13.40;1.00;;;;;;5062644;28;20467;-76
2022/06/01 00:14:37;;;;;;;11.37;8.43;;;13.40;1.00;;;;;;5066897;28;20468;-75
2022/06/01 00:17:04;;;;;;;11.73;8.30;;;13.40;1.00;;;;;;5066597;28;20565;-76
2022/06/01 00:19:31;;;;;;;13.80;9.13;;;13.40;1.00;;;;;;5066140;28;21109;-75
2022/06/01 00:22:14;;;;;;;12.30;10.40;;;13.40;1.00;;;;;;5065124;28;20462;-78
2022/06/01 00:24:43;;;;;;;12.70;9.10;;;13.40;1.00;;;;;;5064265;28;20463;-76
2022/06/01 00:27:11;;;;;;;14.37;9.50;;;13.40;1.00;;;;;;5066028;28;20506;-75
2022/06/01 00:29:38;;;;;;;11.70;9.53;;;13.50;1.00;;;;;;5063968;28;20471;-76
2022/06/01 00:32:06;;;;;;;13.20;10.20;;;13.50;1.00;;;;;;5065556;28;20507;-76
2022/06/01 00:34:33;;;;;;;11.00;9.20;;;13.50;1.00;;;;;;5065693;28;20505;-76
2022/06/01 00:37:00;;;;;;;13.13;10.13;;;13.50;1.00;;;;;;5064409;28;20548;-75
2022/06/01 00:39:27;;;;;;;10.83;9.30;;;13.40;1.00;;;;;;5065408;28;21047;-76
2022/06/01 00:41:56;;;;;;;11.90;9.80;;;13.40;1.00;;;;;;5065752;28;20562;-76
2022/06/01 00:44:23;;;;;;;12.30;9.50;;;13.40;1.00;;;;;;5065921;28;20505;-75
2022/06/01 00:46:51;;;;;;;12.50;10.17;;;13.50;1.00;;;;;;5069228;28;21177;-75
2022/06/01 00:49:21;;;;;;;13.50;9.00;;;13.50;1.00;;;;;;5061164;28;20537;-75
2022/06/01 00:51:49;;;;;;;12.60;10.20;;;13.50;1.00;;;;;;5065156;28;20464;-75
2022/06/01 00:54:16;;;;;;;12.53;9.70;;;13.50;1.00;;;;;;5062701;28;20516;-75
2022/06/01 00:56:47;;;;;;;14.83;9.60;;;13.50;1.00;;;;;;5065248;28;20466;-75
2022/06/01 00:59:18;;;;;;;11.60;9.07;;;13.50;1.00;;;;;;5064929;28;20475;-75
2022/06/01 01:01:46;;;;;;;12.53;9.43;;;13.50;1.00;;;;;;5064648;28;20826;-75
2022/06/01 01:04:14;;;;;;;12.80;9.07;;;13.50;1.00;;;;;;5064296;28;20937;-75
2022/06/01 01:06:42;;;;;;;11.70;9.40;;;13.50;1.00;;;;;;5064509;28;20540;-76
2022/06/01 01:09:10;;;;;;;13.90;10.30;;;13.60;1.00;;;;;;5066990;28;20483;-75
2022/06/01 01:11:46;;;;;;;13.13;10.30;;;13.70;1.00;;;;;;5060393;28;20561;-75
2022/06/01 01:14:19;;;;;;;13.90;10.20;;;13.70;1.00;;;;;;5061286;28;20529;-75
2022/06/01 01:16:47;;;;;;;11.80;9.60;;;13.80;1.00;;;;;;5061415;28;20559;-75
2022/06/01 01:19:20;;;;;;;12.53;9.50;;;13.80;1.00;;;;;;5064784;28;20537;-76
2022/06/01 01:21:57;;;;;;;12.53;10.77;;;13.80;1.00;;;;;;5063167;28;20504;-75
2022/06/01 01:24:32;;;;;;;14.73;9.27;;;13.70;1.00;;;;;;5058804;28;20508;-75
2022/06/01 01:27:00;;;;;;;12.23;9.53;;;13.80;1.00;;;;;;5061129;28;21092;-75
2022/06/01 01:29:35;;;;;;;11.67;9.70;;;13.80;1.00;;;;;;5064660;28;20514;-75
2022/06/01 01:32:05;;;;;;;13.43;10.40;;;13.80;1.00;;;;;;5066510;28;20513;-76
2022/06/01 01:34:32;;;;;;;11.50;9.60;;;13.80;1.00;;;;;;5065915;28;20458;-75
2022/06/01 01:37:02;;;;;;;13.17;10.07;;;13.80;1.00;;;;;;5065150;28;20455;-75
2022/06/01 01:39:32;;;;;;;11.83;8.83;;;13.80;1.00;;;;;;5059260;28;20855;-75
2022/06/01 01:42:00;;;;;;;13.97;9.87;;;13.80;1.00;;;;;;5061234;28;20456;-76
2022/06/01 01:44:31;;;;;;;12.13;9.20;;;13.80;1.00;;;;;;5064409;28;21354;-74
2022/06/01 01:46:59;;;;;;;14.80;9.90;;;13.90;1.00;;;;;;5063567;28;20460;-74
2022/06/01 01:49:30;;;;;;;14.00;9.63;;;13.80;1.00;;;;;;5061839;28;20598;-75
2022/06/01 01:52:00;;;;;;;13.67;9.40;;;13.90;1.00;;;;;;5061849;28;20457;-75
2022/06/01 01:54:36;;;;;;;10.90;8.90;;;13.90;1.00;;;;;;5062099;28;20911;-75
2022/06/01 01:57:19;;;;;;;12.63;7.83;;;13.90;1.00;;;;;;5065652;28;20463;-74
2022/06/01 01:59:59;;;;;;;11.70;8.70;;;13.90;1.00;;;;;;5064620;28;20502;-76
2022/06/01 02:02:33;;;;;;;11.47;8.03;;;13.90;1.00;;;;;;5065037;28;20501;-74
2022/06/01 02:07:58;;;;;;;10.43;7.27;;;13.80;1.00;;;;;;5062887;28;20473;-76
2022/06/01 02:13:10;;;;;;;8.67;6.30;;;13.70;1.00;;;;;;5064226;28;20988;-76
2022/06/01 02:15:42;;;;;;;10.03;6.60;;;13.70;1.00;;;;;;5068471;28;20487;-76
2022/06/01 02:18:13;;;;;;;9.20;6.70;;;13.70;1.00;;;;;;5066344;28;20544;-76
2022/06/01 02:20:44;;;;;;;10.10;6.53;;;13.70;1.00;;;;;;5057817;28;20592;-76
2022/06/01 02:23:14;;;;;;;10.03;6.87;;;13.70;1.00;;;;;;5065804;28;20475;-76
2022/06/01 02:25:42;;;;;;;12.50;7.17;;;13.80;1.00;;;;;;5064754;28;20589;-76
2022/06/01 02:28:10;;;;;;;10.60;7.03;;;13.80;1.00;;;;;;5067677;28;20520;-75
2022/06/01 02:30:39;;;;;;;11.13;7.10;;;13.80;1.00;;;;;;5064946;28;20556;-78
2022/06/01 02:33:09;;;;;;;9.40;6.70;;;13.80;1.00;;;;;;5064400;28;20478;-75
2022/06/01 02:35:40;;;;;;;10.83;7.70;;;13.70;1.00;;;;;;5068227;28;20521;-76
2022/06/01 02:38:10;;;;;;;12.20;7.50;;;13.70;1.00;;;;;;5070202;28;20483;-75
2022/06/01 02:40:38;;;;;;;11.60;7.80;;;13.80;1.00;;;;;;5044701;28;20531;-76
2022/06/01 02:43:05;;;;;;;11.90;6.93;;;13.70;1.00;;;;;;5043821;28;20924;-75
2022/06/01 02:45:32;;;;;;;9.93;6.57;;;13.80;1.00;;;;;;5065312;28;20488;-75
2022/06/01 02:48:02;;;;;;;9.73;6.97;;;13.80;1.00;;;;;;5067745;28;20525;-76
2022/06/01 02:50:31;;;;;;;11.13;7.33;;;13.80;1.00;;;;;;5067329;28;20471;-74
2022/06/01 02:52:59;;;;;;;16.00;11.70;;;13.90;1.00;;;;;;5067374;28;20518;-76
2022/06/01 02:55:27;;;;;;;11.27;7.63;;;13.90;1.00;;;;;;5064048;28;21037;-74
2022/06/01 02:57:55;;;;;;;10.27;7.30;;;13.90;1.00;;;;;;5065875;28;20955;-74
2022/06/01 03:00:24;;;;;;;11.00;6.93;;;13.90;1.00;;;;;;5066459;28;20467;-74
2022/06/01 03:02:53;;;;;;;11.70;7.10;;;14.00;1.00;;;;;;5068144;28;20460;-76
2022/06/01 03:05:22;;;;;;;12.27;6.83;;;14.00;1.00;;;;;;5061760;27;20887;-76
2022/06/01 03:07:49;;;;;;;11.33;6.60;;;14.00;1.00;;;;;;5064356;28;20922;-76
2022/06/01 03:10:16;;;;;;;11.00;6.80;;;14.10;1.00;;;;;;5062462;28;20495;-76
2022/06/01 03:12:43;;;;;;;9.30;6.33;;;14.00;1.00;;;;;;5064097;28;21056;-76
2022/06/01 03:15:12;;;;;;;10.80;7.00;;;14.00;1.00;;;;;;5065904;28;20463;-76
2022/06/01 03:17:39;;;;;;;10.70;7.07;;;14.00;1.00;;;;;;5065549;28;20533;-75
2022/06/01 03:20:09;;;;;;;9.73;6.70;;;14.10;1.00;;;;;;5062367;28;20495;-75
2022/06/01 03:22:37;;;;;;;10.27;6.47;;;14.10;1.00;;;;;;5063630;28;20514;-75
2022/06/01 03:25:04;;;;;;;9.97;6.80;;;14.10;1.00;;;;;;5064519;28;20455;-76
2022/06/01 03:27:31;;;;;;;13.80;7.37;;;14.00;1.00;;;;;;5064872;28;20463;-76
2022/06/01 03:29:57;;;;;;;12.53;7.63;;;14.00;1.00;;;;;;5062929;28;20962;-76
2022/06/01 03:32:24;;;;;;;11.13;7.37;;;14.00;1.00;;;;;;5062675;28;20583;-75
2022/06/01 03:34:50;;;;;;;12.60;8.17;;;13.90;1.00;;;;;;5064920;28;20475;-75
2022/06/01 03:37:18;;;;;;;10.37;7.40;;;13.80;1.00;;;;;;5062696;28;20546;-75
2022/06/01 03:39:45;;;;;;;9.10;5.97;;;13.80;1.00;;;;;;5062644;28;20509;-76
2022/06/01 03:42:12;;;;;;;11.20;7.23;;;13.80;1.00;;;;;;5064799;28;20454;-75
2022/06/01 03:47:25;;;;;;;12.30;7.80;;;13.80;1.00;;;;;;5041805;28;20521;-75
2022/06/01 03:49:52;;;;;;;10.70;7.37;;;13.80;1.00;;;;;;5067857;28;20520;-76
2022/06/01 03:52:20;;;;;;;9.60;6.67;;;13.70;1.00;;;;;;5067616;28;20929;-76
2022/06/01 03:54:46;;;;;;;9.17;6.40;;;13.70;1.00;;;;;;5067077;28;20466;-76
2022/06/01 03:57:13;;;;;;;9.93;6.47;;;13.70;1.00;;;;;;5066278;28;20530;-75
2022/06/01 03:59:40;;;;;;;10.57;7.00;;;13.80;1.00;;;;;;5065596;28;20533;-76
2022/06/01 04:02:07;;;;;;;10.13;7.60;;;13.90;1.00;;;;;;5059290;28;20458;-76
2022/06/01 04:04:36;;;;;;;11.17;7.57;;;13.90;1.00;;;;;;5061535;28;20504;-75
2022/06/01 04:07:03;;;;;;;9.90;7.03;;;14.00;1.00;;;;;;5061985;28;20449;-76
2022/06/01 04:09:31;;;;;;;10.00;6.97;;;14.10;1.00;;;;;;5065940;28;20499;-75
2022/06/01 04:12:00;;;;;;;9.90;7.10;;;14.20;1.00;;;;;;5065699;28;20517;-76
2022/06/01 04:14:27;;;;;;;10.50;8.03;;;14.20;1.00;;;;;;5066466;28;20684;-76
2022/06/01 04:16:54;;;;;;;9.60;7.27;;;14.20;1.00;;;;;;5067452;28;20456;-75
2022/06/01 04:19:20;;;;;;;15.00;9.07;;;14.20;1.00;;;;;;5067029;28;20471;-75
2022/06/01 04:21:51;;;;;;;11.20;9.33;;;14.10;1.00;;;;;;5068968;28;20589;-76
2022/06/01 04:24:20;;;;;;;13.67;11.77;;;14.10;1.00;;;;;;5069583;28;20498;-75
2022/06/01 04:26:48;;;;;;;13.00;10.07;;;14.00;1.00;;;;;;5065748;28;21280;-76
2022/06/01 04:29:15;;;;;;;12.83;10.53;;;13.90;1.00;;;;;;5068649;28;20914;-75
2022/06/01 04:31:42;;;;;;;12.90;10.50;;;13.90;1.00;;;;;;5067438;28;20854;-75
2022/06/01 04:34:08;;;;;;;15.37;9.97;;;13.80;1.00;;;;;;5061233;28;22993;-76
2022/06/01 04:36:35;;;;;;;11.13;9.47;;;13.80;1.00;;;;;;5060123;28;20455;-76
2022/06/01 04:39:02;;;;;;;12.07;10.77;;;13.70;1.00;;;;;;5066779;28;20596;-77
2022/06/01 04:41:34;;;;;;;13.40;10.27;;;13.60;1.00;;;;;;5056453;28;20954;-82
2022/06/01 04:44:02;;;;;;;15.43;11.40;;;13.60;1.00;;;;;;5068919;28;20527;-76
2022/06/01 04:46:28;;;;;;;13.63;10.57;;;13.60;1.00;;;;;;5063866;28;20472;-75
2022/06/01 04:48:55;;;;;;;15.40;11.83;;;13.60;1.00;;;;;;5064805;28;20528;-75
2022/06/01 04:51:22;;;;;;;14.50;11.63;;;13.60;1.00;;;;;;5067894;28;20489;-74
2022/06/01 04:53:48;;;;;;;12.80;10.23;;;13.60;1.00;;;;;;5065833;28;20520;-74
2022/06/01 04:56:15;;;;;;;14.20;11.07;;;13.50;1.00;;;;;;5063824;28;20546;-74
2022/06/01 04:58:41;;;;;;;12.40;10.70;;;13.40;1.00;;;;;;5060285;28;20466;-74
2022/06/01 05:01:09;;;;;;;13.73;11.40;;;13.50;1.00;;;;;;5061855;28;20490;-74
2022/06/01 05:03:36;;;;;;;12.70;11.10;;;13.50;1.00;;;;;;5062239;28;20459;-74
2022/06/01 05:06:03;;;;;;;14.00;10.50;;;13.50;1.00;;;;;;5061842;28;20516;-73
2022/06/01 05:08:29;;;;;;;11.50;10.03;;;13.40;1.00;;;;;;5062808;28;20467;-75
2022/06/01 05:10:56;;;;;;;17.33;15.50;;;13.40;1.00;;;;;;5060621;28;20630;-74
2022/06/01 05:13:23;;;;;;;14.37;12.50;;;13.50;1.00;;;;;;5069348;28;20820;-74
2022/06/01 05:15:52;;;;;;;13.30;11.30;;;13.70;1.00;;;;;;5066473;28;20541;-74
2022/06/01 05:18:21;;;;;;;13.60;11.17;;;13.90;1.00;;;;;;5066663;28;20529;-74
2022/06/01 05:20:48;;;;;;;12.30;10.03;;;14.10;1.00;;;;;;5063548;28;20533;-74
2022/06/01 05:23:17;;;;;;;12.70;9.77;;;14.30;1.00;;;;;;5061251;28;20464;-73
2022/06/01 05:25:44;;;;;;;12.60;9.07;;;14.40;1.00;;;;;;5063504;28;20556;-74
2022/06/01 05:28:11;;;;;;;11.70;9.30;;;14.50;1.00;;;;;;5068983;28;20509;-74
2022/06/01 05:30:38;;;;;;;11.33;8.60;;;14.60;1.00;;;;;;5067039;28;20459;-75
2022/06/01 05:33:05;;;;;;;14.30;10.07;;;14.70;1.00;;;;;;5064734;28;20519;-74
2022/06/01 05:35:34;;;;;;;13.60;10.40;;;14.80;1.00;;;;;;5067157;28;20458;-74
2022/06/01 05:38:01;;;;;;;10.60;8.50;;;14.80;1.00;;;;;;5064620;28;20523;-73
2022/06/01 05:40:30;;;;;;;12.53;9.47;;;15.00;1.00;;;;;;5066957;28;20981;-75
2022/06/01 05:43:01;;;;;;;10.50;8.20;;;15.00;1.00;;;;;;5066003;28;20954;-74
2022/06/01 05:45:31;;;;;;;10.83;7.83;;;15.10;1.00;;;;;;5069802;28;20514;-73
2022/06/01 05:47:57;;;;;;;10.87;8.40;;;15.20;1.00;;;;;;5067941;28;20475;-73
2022/06/01 05:50:24;;;;;;;10.30;7.00;;;15.20;1.00;;;;;;5067458;28;20471;-74
2022/06/01 05:52:52;;;;;;;10.97;7.50;;;15.40;1.00;;;;;;5068915;28;20520;-74
2022/06/01 05:55:20;;;;;;;11.37;8.07;;;15.60;1.00;;;;;;5067355;28;20475;-75
2022/06/01 05:57:47;;;;;;;11.73;7.00;;;15.70;1.00;;;;;;5070508;28;20863;-73
2022/06/01 06:00:16;;;;;;;9.03;6.60;;;15.60;1.00;;;;;;5067596;28;20463;-74
2022/06/01 06:02:43;;;;;;;12.10;7.50;;;15.50;1.00;;;;;;5071577;28;21305;-74
2022/06/01 06:07:53;;;;;;;10.50;7.50;;;15.40;1.00;;;;;;5066526;28;20628;-74
2022/06/01 06:10:20;;;;;;;9.57;7.40;;;15.40;1.00;;;;;;5072016;28;20847;-77
2022/06/01 06:12:47;;;;;;;9.00;5.77;;;15.50;1.00;;;;;;5063253;28;20526;-76
2022/06/01 06:15:15;;;;;;;7.80;5.10;;;15.70;1.00;;;;;;5070456;28;20451;-76
2022/06/01 06:17:42;;;;;;;12.27;5.20;;;15.70;1.00;;;;;;5067426;28;20560;-74
2022/06/01 06:20:10;;;;;;;11.80;5.77;;;15.80;1.00;;;;;;5068747;28;20542;-74
2022/06/01 06:22:37;;;;;;;8.47;5.53;;;15.90;1.00;;;;;;5072747;28;20451;-75
2022/06/01 06:25:06;;;;;;;7.47;5.23;;;16.00;1.00;;;;;;5072417;28;20470;-73
2022/06/01 06:27:33;;;;;;;10.90;5.60;;;16.00;1.00;;;;;;5071599;28;20443;-73
2022/06/01 06:29:59;;;;;;;8.00;4.83;;;16.10;1.00;;;;;;5070654;28;20583;-75
2022/06/01 06:32:28;;;;;;;8.67;5.83;;;16.20;1.00;;;;;;5068990;28;20521;-74
2022/06/01 06:34:54;;;;;;;8.50;5.50;;;16.30;1.00;;;;;;5068022;28;20461;-74
2022/06/01 06:37:21;;;;;;;7.63;5.13;;;16.40;1.00;;;;;;5068088;28;20476;-74
2022/06/01 06:39:49;;;;;;;8.30;4.87;;;16.40;1.00;;;;;;5067497;28;20471;-74
2022/06/01 06:42:17;;;;;;;15.67;5.60;;;16.40;1.00;;;;;;5065476;28;21210;-74
2022/06/01 06:44:43;;;;;;;8.57;5.20;;;16.40;1.00;;;;;;5068568;28;20448;-74
2022/06/01 06:47:11;;;;;;;8.93;5.57;;;16.40;1.00;;;;;;5067072;28;20566;-73
2022/06/01 06:49:38;;;;;;;7.87;5.30;;;16.40;1.00;;;;;;5066612;28;20465;-73
2022/06/01 06:52:06;;;;;;;10.83;6.17;;;16.50;1.00;;;;;;5072355;28;20790;-74
2022/06/01 06:54:33;;;;;;;7.90;4.90;;;16.50;1.00;;;;;;5063385;28;20459;-74
2022/06/01 06:56:59;;;;;;;7.67;5.23;;;16.50;1.00;;;;;;5068210;28;20491;-75
2022/06/01 06:59:27;;;;;;;8.17;5.13;;;16.40;1.00;;;;;;5069419;28;20459;-75
2022/06/01 07:01:54;;;;;;;8.97;5.17;;;16.30;1.00;;;;;;5067869;28;20471;-75
2022/06/01 07:04:23;;;;;;;8.10;4.30;;;16.40;1.00;;;;;;5066476;28;20456;-74
2022/06/01 07:06:51;;;;;;;7.57;4.80;;;16.40;1.00;;;;;;5066751;28;20530;-76
2022/06/01 07:09:17;;;;;;;11.73;5.50;;;16.50;1.00;;;;;;5066212;28;20992;-74
2022/06/01 07:11:44;;;;;;;8.67;4.57;;;16.50;1.00;;;;;;5066249;28;20946;-75
2022/06/01 07:14:11;;;;;;;8.87;5.63;;;16.60;1.00;;;;;;5064793;28;20529;-75
2022/06/01 07:16:39;;;;;;;7.67;5.17;;;16.70;1.00;;;;;;5064402;28;20851;-74
2022/06/01 07:19:08;;;;;;;8.53;4.60;;;16.80;1.00;;;;;;5067978;28;20550;-74
2022/06/01 07:21:36;;;;;;;9.70;5.00;;;16.90;1.00;;;;;;5067146;28;20451;-74
2022/06/01 07:24:04;;;;;;;7.50;4.40;;;17.00;1.00;;;;;;5067998;28;20475;-74
2022/06/01 07:26:35;;;;;;;7.77;4.97;;;17.10;1.00;;;;;;5067327;28;20541;-74
2022/06/01 07:29:03;;;;;;;9.03;4.33;;;17.30;1.00;;;;;;5064045;28;20519;-73
2022/06/01 07:31:30;;;;;;;9.90;4.57;;;17.50;1.00;;;;;;5067289;28;20438;-73
2022/06/01 07:33:59;;;;;;;8.07;4.87;;;17.90;1.00;;;;;;5066128;28;20517;-74
2022/06/01 07:36:26;;;;;;;8.70;4.63;;;18.40;1.00;;;;;;5064418;28;20558;-74
2022/06/01 07:44:27;;;;;;;7.40;3.63;;;18.80;1.00;;;;;;5067957;28;20919;-74
2022/06/01 07:46:54;;;;;;;8.00;4.33;;;18.70;1.00;;;;;;5064878;28;20491;-74
2022/06/01 07:49:23;;;;;;;7.00;3.70;;;18.70;1.00;;;;;;5064564;28;20561;-74
2022/06/01 07:51:49;;;;;;;8.00;4.30;;;18.90;1.00;;;;;;5067038;28;20497;-76
2022/06/01 07:54:17;;;;;;;7.10;4.37;;;19.20;1.00;;;;;;5067136;28;20468;-73
2022/06/01 07:56:43;;;;;;;7.03;3.80;;;19.30;1.00;;;;;;5064915;28;20557;-73
2022/06/01 07:59:10;;;;;;;6.93;3.90;;;19.40;1.00;;;;;;5063897;28;21286;-75
2022/06/01 08:01:37;;;;;;;7.77;4.23;;;19.40;1.00;;;;;;5062583;28;20517;-74
2022/06/01 08:04:06;;;;;;;9.87;3.87;;;19.70;1.00;;;;;;5067873;27;20459;-75
2022/06/01 08:06:36;;;;;;;7.00;4.20;;;19.80;1.00;;;;;;5066612;28;20458;-74
2022/06/01 08:09:03;;;;;;;6.90;3.57;;;19.90;1.00;;;;;;5072184;28;20451;-75
2022/06/01 08:14:14;;;;;;;6.50;2.90;;;19.90;1.00;;;;;;5063938;28;20546;-74
2022/06/01 08:16:42;;;;;;;7.57;3.03;;;19.80;1.00;;;;;;5066863;28;20468;-74
2022/06/01 08:19:10;;;;;;;7.87;2.97;;;19.60;1.00;;;;;;5064109;28;20979;-75
2022/06/01 08:21:38;;;;;;;8.17;3.47;;;19.50;1.00;;;;;;5067701;28;20455;-74
2022/06/01 08:24:06;;;;;;;6.80;3.17;;;19.40;1.00;;;;;;5068147;28;20637;-74
2022/06/01 08:26:35;;;;;;;9.07;3.40;;;19.40;1.00;;;;;;5047914;28;20863;-74
2022/06/01 08:29:03;;;;;;;6.53;3.33;;;19.40;1.00;;;;;;5065410;28;20463;-76
2022/06/01 08:31:30;;;;;;;6.70;3.13;;;19.40;1.00;;;;;;5065875;28;20452;-73
2022/06/01 08:33:57;;;;;;;6.53;2.97;;;19.40;1.00;;;;;;5081370;28;20460;-77
2022/06/01 08:36:24;;;;;;;9.27;3.90;;;19.30;1.00;;;;;;5063566;28;20459;-76
2022/06/01 08:38:54;;;;;;;6.67;3.27;;;19.40;1.00;;;;;;5066141;28;20529;-74
2022/06/01 08:41:23;;;;;;;7.07;3.30;;;19.60;1.00;;;;;;5066913;28;20963;-75
2022/06/01 08:43:54;;;;;;;6.30;3.50;;;19.80;1.00;;;;;;5065409;28;20471;-75
2022/06/01 08:46:22;;;;;;;7.20;4.40;;;19.80;1.00;;;;;;5064407;28;20486;-74
2022/06/01 08:48:51;;;;;;;7.50;3.03;;;20.10;1.00;;;;;;5062501;28;20444;-75
2022/06/01 08:51:21;;;;;;;7.03;3.70;;;20.40;1.00;;;;;;5064156;28;20883;-75
2022/06/01 08:53:47;;;;;;;7.33;3.63;;;20.40;1.00;;;;;;5061336;28;20634;-74
2022/06/01 08:56:20;;;;;;;8.17;3.97;;;20.20;1.00;;;;;;5060793;28;20490;-74
2022/06/01 08:58:51;;;;;;;8.07;3.77;;;20.20;1.00;;;;;;5063185;28;20523;-74
2022/06/01 09:01:26;;;;;;;7.83;3.80;;;20.40;1.00;;;;;;5061333;28;20517;-74
2022/06/01 09:04:07;;;;;;;7.07;3.87;;;20.50;1.00;;;;;;5061896;28;20518;-74
2022/06/01 09:06:40;;;;;;;6.77;3.70;;;20.60;1.00;;;;;;5062533;28;20554;-74
2022/06/01 09:09:11;;;;;;;8.10;3.30;;;20.80;1.00;;;;;;5059296;28;20490;-76
2022/06/01 09:11:39;;;;;;;7.40;3.07;;;20.90;1.00;;;;;;5059890;28;20514;-74
2022/06/01 09:14:12;;;;;;;7.20;3.30;;;21.10;1.00;;;;;;5064365;28;20507;-73
2022/06/01 09:16:41;;;;;;;6.90;2.93;;;21.40;1.00;;;;;;5065032;28;20457;-75
2022/06/01 09:19:12;;;;;;;6.43;3.00;;;21.40;1.00;;;;;;5065317;28;20467;-75
2022/06/01 09:24:27;;;;;;;6.20;3.30;;;21.00;1.00;;;;;;5070425;28;20459;-75
2022/06/01 09:27:01;;;;;;;7.40;3.53;;;21.00;1.00;;;;;;5069410;28;20467;-74
2022/06/01 09:29:32;;;;;;;7.33;3.73;;;20.90;1.00;;;;;;5066650;28;20475;-75
2022/06/01 09:32:02;;;;;;;6.30;3.10;;;21.10;1.00;;;;;;5063883;28;20463;-74
2022/06/01 09:34:39;;;;;;;6.87;3.13;;;21.80;1.00;;;;;;5067266;28;20540;-74
2022/06/01 09:37:10;;;;;;;6.10;3.07;;;22.80;1.00;;;;;;5069343;28;20538;-73
2022/06/01 09:39:38;;;;;;;6.97;2.90;;;24.00;1.00;;;;;;5066621;28;20992;-73
2022/06/01 09:42:16;;;;;;;6.23;2.80;;;25.50;1.00;;;;;;5069586;28;20582;-75
2022/06/01 09:44:46;;;;;;;8.80;5.40;;;26.70;1.00;;;;;;5068147;28;20453;-75
2022/06/01 09:47:28;;;;;;;6.03;2.90;;;27.60;1.00;;;;;;5069018;28;20468;-76
2022/06/01 09:49:57;;;;;;;6.30;2.50;;;28.40;1.00;;;;;;5066562;28;20463;-74
2022/06/01 09:52:28;;;;;;;8.33;3.77;;;28.00;1.00;;;;;;5066348;28;20583;-76
2022/06/01 09:54:57;;;;;;;6.80;2.90;;;27.50;1.00;;;;;;5065736;28;20471;-74
2022/06/01 09:57:29;;;;;;;6.60;2.97;;;27.50;1.00;;;;;;5067754;28;20603;-74
2022/06/01 10:08:19;;;;;;;5.77;2.80;;;29.80;1.00;;;;;;5066349;28;20463;-75
2022/06/01 10:10:58;;;;;;;5.83;2.70;;;28.70;1.00;;;;;;5069619;28;20451;-75
2022/06/01 10:13:33;;;;;;;7.27;2.90;;;28.90;1.00;;;;;;5063331;28;21722;-75
2022/06/01 10:16:06;;;;;;;6.20;2.67;;;28.20;1.00;;;;;;5067514;28;20455;-74
2022/06/01 10:18:34;;;;;;;6.50;2.80;;;26.70;1.00;;;;;;5067859;28;20596;-74
2022/06/01 10:21:08;;;;;;;6.10;2.47;;;26.30;1.00;;;;;;5069407;28;20483;-75
2022/06/01 10:23:41;;;;;;;5.73;2.60;;;27.00;1.00;;;;;;5067405;28;20475;-74
2022/06/01 10:26:11;;;;;;;8.23;2.73;;;27.10;1.00;;;;;;5069707;28;20472;-74
2022/06/01 10:28:44;;;;;;;5.80;2.10;;;27.00;1.00;;;;;;5067663;28;20513;-74
2022/06/01 10:31:23;;;;;;;6.60;2.50;;;25.90;1.00;;;;;;5067134;28;20573;-75
2022/06/01 10:33:56;;;;;;;5.90;2.20;;;24.60;1.00;;;;;;5066179;28;20573;-75
2022/06/01 10:36:35;;;;;;;6.00;2.70;;;23.50;1.00;;;;;;5067207;28;20475;-75
2022/06/01 10:39:08;;;;;;;6.27;2.30;;;22.70;1.00;;;;;;5068055;28;20463;-75
2022/06/01 10:41:39;;;;;;;6.23;2.47;;;21.90;1.00;;;;;;5065898;28;20509;-75
2022/06/01 10:44:13;;;;;;;6.90;2.70;;;22.00;1.00;;;;;;5068725;28;20592;-75
2022/06/01 10:46:47;;;;;;;19.00;4.27;;;23.60;1.00;;;;;;5068598;28;20511;-75
2022/06/01 10:49:30;;;;;;;8.73;3.53;;;26.00;1.00;;;;;;5065136;28;20462;-73
2022/06/01 10:52:04;;;;;;;17.00;3.77;;;27.50;1.00;;;;;;5068524;28;20882;-74
2022/06/01 10:54:39;;;;;;;9.50;3.00;;;27.60;1.00;;;;;;5064661;28;20455;-74
2022/06/01 10:57:10;;;;;;;6.07;2.90;;;27.40;1.00;;;;;;5070045;28;20576;-74
2022/06/01 10:59:39;;;;;;;6.70;3.80;;;28.40;1.00;;;;;;5066431;28;20491;-74
2022/06/01 11:02:18;;;;;;;6.80;3.33;;;29.70;1.00;;;;;;5069549;28;20521;-74
2022/06/01 11:05:02;;;;;;;6.67;3.20;;;30.40;1.00;;;;;;5067680;28;20466;-74
2022/06/01 11:08:01;;;;;;;5.50;2.50;;;30.40;1.00;;;;;;5063831;28;20510;-72
2022/06/01 11:10:36;;;;;;;6.33;2.47;;;29.70;1.00;;;;;;5067961;28;20510;-76
2022/06/01 11:13:16;;;;;;;6.03;2.53;;;30.00;1.00;;;;;;5065929;28;20490;-74
2022/06/01 11:15:59;;;;;;;5.93;2.87;;;30.30;1.00;;;;;;5062838;28;20456;-74
2022/06/01 11:18:38;;;;;;;6.20;2.73;;;28.80;1.00;;;;;;5065853;28;20475;-75
2022/06/01 11:21:16;;;;;;;6.03;2.90;;;29.30;1.00;;;;;;5065740;28;20916;-77
2022/06/01 11:23:56;;;;;;;5.93;3.20;;;30.60;1.00;;;;;;5073419;28;20443;-75
2022/06/01 11:26:35;;;;;;;7.73;2.60;;;31.10;1.00;;;;;;5065358;28;21196;-75
2022/06/01 11:29:15;;;;;;;5.33;2.77;;;30.90;1.00;;;;;;5068731;28;21020;-75
2022/06/01 11:31:45;;;;;;;5.87;2.30;;;31.30;1.00;;;;;;5058577;28;20506;-74
2022/06/01 11:34:16;;;;;;;6.13;2.20;;;31.10;1.00;;;;;;5064269;28;20952;-75
2022/06/01 11:36:47;;;;;;;4.43;1.87;;;31.90;1.00;;;;;;5065790;28;20914;-74
2022/06/01 11:39:22;;;;;;;5.57;2.47;;;32.30;1.00;;;;;;5063846;28;20526;-73
2022/06/01 11:41:57;;;;;;;5.57;2.87;;;32.20;1.00;;;;;;5066160;28;20471;-74
2022/06/01 11:44:29;;;;;;;5.80;2.27;;;31.30;1.00;;;;;;5067158;28;20497;-74
2022/06/01 11:47:02;;;;;;;5.77;2.30;;;31.00;1.00;;;;;;5067372;28;20480;-75
2022/06/01 11:49:36;;;;;;;5.00;2.10;;;30.00;1.00;;;;;;5066556;28;20479;-75
2022/06/01 11:52:31;;;;;;;7.43;3.27;;;30.80;1.00;;;;;;5067176;28;20468;-76
2022/06/01 11:55:24;;;;;;;6.87;3.27;;;30.00;1.00;;;;;;5064380;28;20566;-74
2022/06/01 11:58:03;;;;;;;5.67;2.60;;;29.30;1.00;;;;;;5066099;28;20542;-75
2022/06/01 12:00:34;;;;;;;5.50;2.63;;;30.20;1.00;;;;;;5067242;28;20485;-74
2022/06/01 12:03:33;;;;;;;6.40;2.60;;;30.10;1.00;;;;;;5067870;28;20443;-76
2022/06/01 12:06:02;;;;;;;6.30;3.00;;;29.80;1.00;;;;;;5067928;28;20452;-75
2022/06/01 12:08:32;;;;;;;6.07;2.57;;;30.10;1.00;;;;;;5067879;28;20498;-76
2022/06/01 12:11:03;;;;;;;5.13;2.40;;;31.20;1.00;;;;;;5064481;28;20542;-74
2022/06/01 12:13:33;;;;;;;6.17;2.27;;;32.00;1.00;;;;;;5066436;28;20450;-75
2022/06/01 12:16:20;;;;;;;5.30;2.00;;;31.90;1.00;;;;;;5068795;28;20487;-75
2022/06/01 12:19:01;;;;;;;5.50;2.23;;;31.90;1.00;;;;;;5066415;28;20513;-77
2022/06/01 12:21:37;;;;;;;7.00;2.17;;;31.20;1.00;;;;;;5066710;28;20452;-76
2022/06/01 12:30:06;;;;;;;5.57;2.37;;;27.00;1.00;;;;;;5067196;28;20471;-75
2022/06/01 12:33:20;;;;;;;8.07;3.13;;;26.10;1.00;;;;;;5064646;28;20941;-76
2022/06/01 12:35:58;;;;;;;5.70;2.20;;;25.00;1.00;;;;;;5062542;28;20920;-74
2022/06/01 12:38:32;;;;;;;6.30;1.77;;;24.40;1.00;;;;;;5066436;28;20517;-75
2022/06/01 12:41:12;;;;;;;5.57;1.53;;;24.00;1.00;;;;;;5067246;28;20459;-74
2022/06/01 12:43:40;;;;;;;6.00;2.30;;;24.50;1.00;;;;;;5068592;28;20517;-74
2022/06/01 12:46:25;;;;;;;5.90;1.70;;;24.90;1.00;;;;;;5068680;28;20471;-74
2022/06/01 12:49:12;;;;;;;5.40;1.83;;;24.70;1.00;;;;;;5058873;28;20448;-75
2022/06/01 12:51:43;;;;;;;6.83;1.97;;;23.80;1.00;;;;;;5066191;28;20447;-75
2022/06/01 12:54:10;;;;;;;6.00;1.93;;;23.20;1.00;;;;;;5068666;28;20630;-76
2022/06/01 12:56:48;;;;;;;7.07;2.50;;;22.80;1.00;;;;;;5068236;28;20510;-74
2022/06/01 12:59:15;;;;;;;6.33;2.30;;;22.10;1.00;;;;;;5061034;28;20452;-75
2022/06/01 13:01:42;;;;;;;7.13;2.20;;;21.70;1.00;;;;;;5066270;28;20462;-74
2022/06/01 13:04:09;;;;;;;7.43;2.63;;;21.50;1.00;;;;;;5062277;28;20945;-75
2022/06/01 13:06:39;;;;;;;6.30;2.37;;;21.20;1.00;;;;;;5066321;28;20557;-75
2022/06/01 13:09:10;;;;;;;10.33;3.37;;;20.30;1.00;;;;;;5063887;28;20452;-73
2022/06/01 13:11:37;;;;;;;9.70;3.90;;;19.30;1.00;;;;;;5062851;28;20448;-75
2022/06/01 13:14:06;;;;;;;10.83;2.90;;;17.80;1.00;;;;;;5069085;28;20456;-75
2022/06/01 13:16:37;;;;;;;8.83;3.43;;;16.50;1.00;;;;;;5063178;28;20459;-74
2022/06/01 13:19:16;;;;;;;9.67;4.03;;;15.60;1.00;;;;;;5066991;28;20468;-74
2022/06/01 13:21:46;;;;;;;8.70;3.53;;;15.00;1.00;;;;;;5064542;28;20466;-75
2022/06/01 13:24:14;;;;;;;10.80;5.37;;;14.50;1.00;;;;;;5065675;28;20463;-75
2022/06/01 13:26:44;;;;;;;10.60;5.57;;;14.10;1.00;;;;;;5066384;28;20489;-75
2022/06/01 13:29:17;;;;;;;12.53;5.93;;;13.90;1.00;;;;;;5069381;28;20469;-75
2022/06/01 13:31:46;;;;;;;10.23;5.37;;;14.00;1.00;;;;;;5067452;28;20969;-74
2022/06/01 13:34:21;;;;;;;10.90;6.37;;;14.20;1.00;;;;;;5066054;28;20443;-74
2022/06/01 13:36:50;;;;;;;9.03;4.07;;;14.50;1.00;;;;;;5065795;28;20478;-74
2022/06/01 13:39:29;;;;;;;10.37;4.60;;;14.80;1.00;;;;;;5063454;28;20512;-74
2022/06/01 13:42:00;;;;;;;10.67;5.90;;;15.10;1.00;;;;;;5061254;28;20487;-73
2022/06/01 13:44:49;;;;;;;12.67;6.13;;;15.50;1.00;;;;;;5061546;28;20487;-77